Time;durP1;ratioP1;P1;durP2;ratioP2;P2;SDS_P1;SDS_P2;PMS_P1;PMS_P2;Temp;Humidity;BMP_temperature;BMP_pressure;BME280_temperature;BME280_humidity;BME280_pressure;Samples;Min_cycle;Max_cycle;Signal;HPM_P1;HPM_P2
2021/05/15 00:01:20;;;;;;;3.50;2.20;;;;;;;19.87;48.99;100639.78;5072946;28;20041;-64
2021/05/15 00:03:45;;;;;;;3.50;2.03;;;;;;;19.87;48.98;100645.06;5074025;28;20051;-65
2021/05/15 00:06:10;;;;;;;3.83;2.20;;;;;;;19.86;49.25;100640.75;5073767;28;20016;-64
2021/05/15 00:08:36;;;;;;;3.42;2.13;;;;;;;19.84;48.79;100637.44;5072956;28;20044;-64
2021/05/15 00:11:01;;;;;;;3.97;2.20;;;;;;;19.84;49.08;100637.44;5073947;28;20027;-65
2021/05/15 00:13:27;;;;;;;4.60;2.03;;;;;;;19.84;49.04;100632.13;5073292;28;20024;-64
2021/05/15 00:15:52;;;;;;;4.20;2.10;;;;;;;19.82;48.88;100634.91;5072968;28;20043;-65
2021/05/15 00:18:17;;;;;;;3.00;1.90;;;;;;;19.81;49.17;100635.06;5073357;28;20032;-65
2021/05/15 00:20:43;;;;;;;4.15;2.25;;;;;;;19.77;48.98;100626.56;5073516;28;20047;-65
2021/05/15 00:23:09;;;;;;;3.78;2.20;;;;;;;19.79;48.93;100624.63;5072923;28;20020;-65
2021/05/15 00:25:34;;;;;;;3.88;2.55;;;;;;;19.79;48.79;100621.97;5073423;28;20060;-64
2021/05/15 00:27:59;;;;;;;3.60;2.05;;;;;;;19.78;48.79;100617.66;5073575;28;20028;-64
2021/05/15 00:30:26;;;;;;;3.15;1.90;;;;;;;19.73;49.02;100614.56;5072446;28;20476;-65
2021/05/15 00:32:51;;;;;;;3.67;2.08;;;;;;;19.72;48.80;100612.91;5073405;28;20099;-65
2021/05/15 00:35:16;;;;;;;3.53;2.10;;;;;;;19.75;48.72;100615.25;5072876;28;20523;-64
2021/05/15 00:37:42;;;;;;;3.80;2.30;;;;;;;19.75;49.13;100620.53;5072675;28;20475;-64
2021/05/15 00:40:10;;;;;;;4.55;1.90;;;;;;;19.74;48.97;100610.94;5073146;28;20021;-64
2021/05/15 00:42:36;;;;;;;3.88;2.10;;;;;;;19.72;49.07;100610.25;5073121;28;20028;-65
2021/05/15 00:45:05;;;;;;;3.72;2.08;;;;;;;19.71;48.81;100611.22;5072254;28;20415;-65
2021/05/15 00:47:31;;;;;;;3.70;2.20;;;;;;;19.71;49.07;100611.22;5073072;28;20032;-64
2021/05/15 00:49:56;;;;;;;3.75;2.25;;;;;;;19.71;48.67;100608.56;5072915;28;20040;-65
2021/05/15 00:52:22;;;;;;;3.70;2.28;;;;;;;19.70;48.76;100606.91;5072183;28;20025;-65
2021/05/15 00:54:50;;;;;;;3.60;2.10;;;;;;;19.66;48.84;100605.53;5073193;28;20029;-65
2021/05/15 00:57:15;;;;;;;4.10;2.30;;;;;;;19.67;48.51;100605.38;5071488;28;20456;-65
2021/05/15 00:59:41;;;;;;;4.22;2.03;;;;;;;19.69;48.88;100603.44;5072165;28;20096;-64
2021/05/15 01:02:09;;;;;;;3.15;1.88;;;;;;;19.67;48.85;100612.50;5072851;28;20028;-64
2021/05/15 01:04:35;;;;;;;3.55;2.15;;;;;;;19.67;48.63;100609.84;5072267;28;20036;-65
2021/05/15 01:07:03;;;;;;;3.30;1.92;;;;;;;19.67;48.76;100602.75;5072341;28;20020;-65
2021/05/15 01:09:28;;;;;;;3.50;2.10;;;;;;;19.66;48.71;100605.53;5072443;28;20021;-65
2021/05/15 01:11:53;;;;;;;4.30;2.22;;;;;;;19.66;48.62;100600.22;5071909;28;20032;-65
2021/05/15 01:14:19;;;;;;;4.00;2.30;;;;;;;19.66;48.50;100594.94;5072305;28;20074;-65
2021/05/15 01:16:44;;;;;;;4.07;2.00;;;;;;;19.64;48.61;100595.09;5072531;28;20379;-65
2021/05/15 01:19:12;;;;;;;3.67;2.47;;;;;;;19.63;48.76;100589.94;5071677;28;20017;-64
2021/05/15 01:21:37;;;;;;;3.35;1.92;;;;;;;19.63;48.72;100587.28;5072728;28;20074;-65
2021/05/15 01:24:03;;;;;;;3.30;2.05;;;;;;;19.62;48.67;100585.66;5072557;28;20422;-64
2021/05/15 01:26:31;;;;;;;3.78;2.10;;;;;;;19.63;48.49;100587.28;5071448;28;20025;-66
2021/05/15 01:28:59;;;;;;;3.95;2.10;;;;;;;19.62;48.75;100583.81;5072375;28;20032;-65
2021/05/15 01:31:26;;;;;;;3.45;2.15;;;;;;;19.58;48.70;100579.78;5072043;28;20463;-64
2021/05/15 01:33:52;;;;;;;3.72;2.20;;;;;;;19.61;48.86;100582.16;5071567;28;20036;-65
2021/05/15 01:36:17;;;;;;;3.75;2.30;;;;;;;19.58;48.67;100582.44;5072151;28;20029;-64
2021/05/15 01:38:43;;;;;;;3.55;2.30;;;;;;;19.59;48.75;100578.81;5072192;28;20047;-64
2021/05/15 01:41:14;;;;;;;4.45;2.30;;;;;;;19.58;48.78;100578.00;5071614;28;20374;-65
2021/05/15 01:43:40;;;;;;;3.88;2.30;;;;;;;19.57;48.63;100576.31;5072167;28;20092;-65
2021/05/15 01:46:07;;;;;;;3.78;2.38;;;;;;;19.56;48.78;100566.72;5072056;28;20048;-65
2021/05/15 01:48:33;;;;;;;3.63;2.20;;;;;;;19.56;48.37;100560.59;5071052;28;20495;-64
2021/05/15 01:51:03;;;;;;;3.70;2.10;;;;;;;19.56;48.50;100565.88;5072574;28;20025;-63
2021/05/15 01:53:32;;;;;;;3.70;2.22;;;;;;;19.55;48.28;100562.41;5071784;28;20051;-64
2021/05/15 01:55:59;;;;;;;3.90;2.05;;;;;;;19.55;48.40;100556.28;5071539;28;20055;-64
2021/05/15 01:58:25;;;;;;;4.10;1.98;;;;;;;19.54;48.48;100557.28;5071823;28;20119;-64
2021/05/15 02:00:51;;;;;;;3.67;2.20;;;;;;;19.53;48.27;100547.66;5072099;28;20035;-65
2021/05/15 02:03:16;;;;;;;3.72;2.47;;;;;;;19.53;48.31;100550.31;5071747;28;20055;-64
2021/05/15 02:05:42;;;;;;;3.47;2.10;;;;;;;19.52;48.42;100549.47;5072906;28;20016;-65
2021/05/15 02:08:10;;;;;;;3.50;2.00;;;;;;;19.50;48.36;100546.16;5071781;28;20066;-65
2021/05/15 02:10:36;;;;;;;3.92;2.17;;;;;;;19.51;48.09;100536.41;5072168;28;20029;-66
2021/05/15 02:13:01;;;;;;;3.50;2.00;;;;;;;19.49;48.51;100533.06;5071693;28;20494;-65
2021/05/15 02:15:27;;;;;;;4.30;2.15;;;;;;;19.49;48.33;100523.34;5070584;28;20046;-65
2021/05/15 02:17:52;;;;;;;3.78;1.98;;;;;;;19.46;48.31;100520.97;5071666;28;20475;-65
2021/05/15 02:20:17;;;;;;;3.72;2.00;;;;;;;19.49;48.17;100527.78;5071635;28;20024;-65
2021/05/15 02:22:43;;;;;;;3.95;2.20;;;;;;;19.48;48.58;100526.13;5071172;28;20085;-65
2021/05/15 02:25:08;;;;;;;3.40;2.00;;;;;;;19.48;47.99;100529.56;5071906;28;20098;-64
2021/05/15 02:27:34;;;;;;;3.70;2.17;;;;;;;19.47;48.18;100522.66;5071427;28;20505;-64
2021/05/15 02:29:59;;;;;;;3.47;2.17;;;;;;;19.48;48.03;100523.47;5070867;28;20028;-64
2021/05/15 02:32:24;;;;;;;4.13;2.35;;;;;;;19.44;48.12;100524.72;5071661;28;20371;-65
2021/05/15 02:34:50;;;;;;;4.10;2.25;;;;;;;19.41;48.10;100523.22;5071811;28;20032;-65
2021/05/15 02:37:15;;;;;;;3.97;2.20;;;;;;;19.45;48.18;100532.50;5070413;28;20027;-64
2021/05/15 02:39:40;;;;;;;4.10;2.33;;;;;;;19.45;48.07;100529.03;5071599;28;20029;-64
2021/05/15 02:42:06;;;;;;;4.00;2.42;;;;;;;19.42;48.05;100519.56;5071951;28;20089;-63
2021/05/15 02:44:32;;;;;;;4.30;2.42;;;;;;;19.39;47.84;100519.84;5070528;28;20148;-65
2021/05/15 02:46:57;;;;;;;3.55;2.15;;;;;;;19.41;47.94;100523.22;5071788;28;20483;-65
2021/05/15 02:49:22;;;;;;;4.57;2.30;;;;;;;19.42;47.90;100527.50;5071259;28;20028;-64
2021/05/15 02:51:48;;;;;;;3.92;2.30;;;;;;;19.41;48.19;100517.91;5071087;28;20103;-65
2021/05/15 02:54:13;;;;;;;3.85;2.28;;;;;;;19.41;48.18;100507.34;5071176;28;20031;-65
2021/05/15 02:56:38;;;;;;;4.43;2.60;;;;;;;19.39;48.12;100514.56;5071445;28;20033;-65
2021/05/15 02:59:04;;;;;;;4.60;2.33;;;;;;;19.39;47.92;100510.13;5070561;28;20131;-64
2021/05/15 03:01:29;;;;;;;4.82;2.47;;;;;;;19.38;47.75;100511.09;5071151;28;20020;-64
2021/05/15 03:03:54;;;;;;;4.13;2.50;;;;;;;19.38;47.79;100508.44;5071308;28;20016;-64
2021/05/15 03:06:20;;;;;;;4.43;2.40;;;;;;;19.38;47.95;100505.00;5070572;28;20021;-65
2021/05/15 03:08:45;;;;;;;4.03;2.50;;;;;;;19.34;47.90;100504.44;5071479;28;20053;-64
2021/05/15 03:11:11;;;;;;;3.80;2.30;;;;;;;19.38;47.64;100512.91;5071333;28;20020;-65
2021/05/15 03:13:36;;;;;;;4.65;2.53;;;;;;;19.33;47.70;100502.75;5070525;28;20104;-64
2021/05/15 03:16:01;;;;;;;3.78;2.35;;;;;;;19.36;47.75;100505.13;5071491;28;20352;-65
2021/05/15 03:18:27;;;;;;;4.32;2.38;;;;;;;19.35;47.67;100506.09;5071102;28;20043;-64
2021/05/15 03:20:52;;;;;;;4.60;2.70;;;;;;;19.35;47.90;100505.28;5074243;28;20028;-64
2021/05/15 03:23:17;;;;;;;4.43;2.55;;;;;;;19.34;47.73;100507.09;5075185;28;20072;-64
2021/05/15 03:25:42;;;;;;;3.42;2.10;;;;;;;19.32;48.03;100503.72;5074294;28;20456;-64
2021/05/15 03:28:08;;;;;;;4.97;2.67;;;;;;;19.33;47.67;100510.69;5074764;28;20024;-66
2021/05/15 03:30:33;;;;;;;5.22;2.53;;;;;;;19.33;47.69;100508.06;5074328;28;20459;-66
2021/05/15 03:32:59;;;;;;;4.85;2.90;;;;;;;19.33;47.60;100508.06;5074098;28;20028;-65
2021/05/15 03:35:26;;;;;;;4.22;2.45;;;;;;;19.32;47.60;100500.25;5074451;28;20031;-63
2021/05/15 03:37:54;;;;;;;4.60;2.72;;;;;;;19.32;47.61;100508.19;5074567;28;20468;-65
2021/05/15 03:40:19;;;;;;;5.05;2.55;;;;;;;19.32;47.70;100505.53;5073642;28;20031;-66
2021/05/15 03:42:47;;;;;;;4.47;2.47;;;;;;;19.31;47.66;100509.16;5074484;28;20025;-65
2021/05/15 03:45:13;;;;;;;4.35;2.60;;;;;;;19.31;47.90;100506.50;5074367;28;20029;-66
2021/05/15 03:47:38;;;;;;;4.70;2.65;;;;;;;19.29;47.74;100503.19;5073787;28;20012;-65
2021/05/15 03:50:05;;;;;;;3.65;2.20;;;;;;;19.30;47.86;100500.41;5074311;28;20048;-64
2021/05/15 03:52:30;;;;;;;4.38;2.55;;;;;;;19.29;47.77;100509.28;5073996;28;20146;-64
2021/05/15 03:54:56;;;;;;;4.07;2.42;;;;;;;19.29;48.03;100511.09;5073430;28;20184;-65
2021/05/15 03:57:21;;;;;;;4.82;2.47;;;;;;;19.29;48.11;100505.81;5073622;28;20112;-64
2021/05/15 03:59:46;;;;;;;4.30;2.65;;;;;;;19.28;47.63;100504.16;5074244;28;20074;-64
2021/05/15 04:02:12;;;;;;;3.70;2.20;;;;;;;19.28;47.94;100514.72;5073702;28;20071;-64
2021/05/15 04:04:37;;;;;;;5.13;2.63;;;;;;;19.28;47.33;100506.78;5074171;28;20016;-64
2021/05/15 04:07:04;;;;;;;4.90;2.70;;;;;;;19.26;48.01;100493.72;5073987;28;20027;-64
2021/05/15 04:09:29;;;;;;;4.20;2.70;;;;;;;19.26;47.62;100492.91;5072877;28;20090;-65
2021/05/15 04:11:54;;;;;;;5.25;2.60;;;;;;;19.26;47.55;100499.00;5074002;28;20017;-65
2021/05/15 04:14:26;;;;;;;4.20;2.47;;;;;;;19.26;47.55;100496.34;5073619;28;20039;-64
2021/05/15 04:19:32;;;;;;;5.15;2.67;;;;;;;19.25;47.56;100493.84;5073501;28;20401;-65
2021/05/15 04:21:57;;;;;;;4.85;2.72;;;;;;;19.24;48.00;100485.09;5073149;28;20094;-64
2021/05/15 04:24:26;;;;;;;5.85;2.60;;;;;;;19.24;47.91;100493.03;5073209;28;20099;-64
2021/05/15 04:26:56;;;;;;;4.75;2.75;;;;;;;19.20;47.78;100484.56;5073428;28;20048;-64
2021/05/15 04:29:22;;;;;;;5.45;2.60;;;;;;;19.23;47.75;100485.25;5072838;28;20026;-65
2021/05/15 04:31:49;;;;;;;6.20;2.90;;;;;;;19.24;47.66;100484.28;5073187;28;20096;-64
2021/05/15 04:34:14;;;;;;;4.25;2.60;;;;;;;19.21;47.76;100485.38;5073242;28;20035;-64
2021/05/15 04:36:40;;;;;;;4.20;2.60;;;;;;;19.22;47.71;100487.06;5072554;28;20021;-66
2021/05/15 04:39:06;;;;;;;6.15;3.25;;;;;;;19.21;47.64;100494.13;5073311;28;20048;-65
2021/05/15 04:41:31;;;;;;;4.57;2.78;;;;;;;19.21;47.43;100496.78;5073066;28;20029;-64
2021/05/15 04:43:56;;;;;;;4.78;2.53;;;;;;;19.21;47.60;100502.06;5072692;28;20086;-65
2021/05/15 04:46:22;;;;;;;4.82;2.90;;;;;;;19.21;47.65;100507.34;5072879;28;20107;-65
2021/05/15 04:48:47;;;;;;;4.97;2.70;;;;;;;19.21;47.63;100498.59;5073192;28;20021;-65
2021/05/15 04:51:12;;;;;;;5.07;2.92;;;;;;;19.19;47.90;100501.38;5072082;28;20024;-65
2021/05/15 04:53:38;;;;;;;4.57;3.00;;;;;;;19.20;47.65;100510.13;5072864;28;20028;-65
2021/05/15 04:56:04;;;;;;;4.80;2.80;;;;;;;19.20;47.80;100507.47;5072923;28;20138;-65
2021/05/15 04:58:30;;;;;;;6.05;3.05;;;;;;;19.20;47.69;100508.34;5071858;28;20045;-65
2021/05/15 05:00:55;;;;;;;4.80;2.85;;;;;;;19.19;47.63;100506.66;5072858;28;20039;-66
2021/05/15 05:03:21;;;;;;;4.97;2.92;;;;;;;19.18;47.80;100504.16;5072681;28;20024;-65
2021/05/15 05:05:46;;;;;;;6.00;2.80;;;;;;;19.18;47.74;100505.00;5071915;28;20511;-65
2021/05/15 05:08:12;;;;;;;5.10;3.00;;;;;;;19.18;47.79;100496.22;5072716;28;20028;-65
2021/05/15 05:10:37;;;;;;;4.70;2.50;;;;;;;19.18;47.90;100491.81;5072668;28;20460;-64
2021/05/15 05:13:06;;;;;;;4.72;3.17;;;;;;;19.17;47.69;100492.75;5071831;28;20560;-64
2021/05/15 05:15:31;;;;;;;4.30;2.75;;;;;;;19.18;47.56;100496.22;5072321;28;20112;-64
2021/05/15 05:17:57;;;;;;;6.05;3.45;;;;;;;19.15;47.82;100492.09;5071747;28;20396;-64
2021/05/15 05:20:22;;;;;;;6.07;2.90;;;;;;;19.17;47.80;100491.94;5072277;28;20020;-65
2021/05/15 05:22:49;;;;;;;5.53;3.17;;;;;;;19.16;47.87;100496.38;5072469;28;20020;-64
2021/05/15 05:25:17;;;;;;;5.10;3.17;;;;;;;19.14;47.55;100485.13;5071579;28;20422;-65
2021/05/15 05:27:47;;;;;;;6.18;3.22;;;;;;;19.16;47.43;100491.09;5072658;28;20037;-63
2021/05/15 05:30:17;;;;;;;5.40;3.13;;;;;;;19.19;47.41;100498.72;5072320;28;20123;-61
2021/05/15 05:32:43;;;;;;;6.32;2.85;;;;;;;19.21;47.69;100488.84;5071588;28;20030;-66
2021/05/15 05:35:09;;;;;;;5.45;2.90;;;;;;;19.23;47.50;100487.88;5072175;28;20152;-65
2021/05/15 05:37:35;;;;;;;5.00;3.03;;;;;;;19.23;47.46;100488.72;5072180;28;20024;-66
2021/05/15 05:40:00;;;;;;;4.70;2.92;;;;;;;19.25;47.82;100492.06;5071626;28;20042;-64
2021/05/15 05:42:25;;;;;;;4.80;3.33;;;;;;;19.25;47.84;100491.22;5071100;28;20376;-64
2021/05/15 05:44:51;;;;;;;5.90;3.75;;;;;;;19.25;47.56;100494.72;5072177;28;20059;-65
2021/05/15 05:47:16;;;;;;;6.28;3.63;;;;;;;19.25;47.55;100500.00;5071102;28;20059;-65
2021/05/15 05:49:41;;;;;;;6.30;3.50;;;;;;;19.26;47.62;100506.94;5072071;28;20124;-65
2021/05/15 05:52:07;;;;;;;5.82;3.50;;;;;;;19.25;47.75;100496.50;5071993;28;20033;-65
2021/05/15 05:54:32;;;;;;;4.75;3.22;;;;;;;19.25;47.65;100502.63;5071155;28;20665;-65
2021/05/15 05:57:24;;;;;;;7.25;3.78;;;;;;;19.26;47.34;100487.59;5071884;28;20031;-66
2021/05/15 05:59:49;;;;;;;7.15;3.50;;;;;;;19.25;47.36;100491.22;5070808;28;20047;-66
2021/05/15 06:02:14;;;;;;;5.30;3.58;;;;;;;19.26;47.46;100491.06;5070704;28;20020;-65
2021/05/15 06:04:40;;;;;;;5.53;3.60;;;;;;;19.29;47.73;100489.97;5071792;28;20025;-66
2021/05/15 06:07:08;;;;;;;5.65;3.30;;;;;;;19.32;47.38;100492.34;5071223;28;20101;-66
2021/05/15 06:09:34;;;;;;;4.93;3.05;;;;;;;19.33;47.91;100491.38;5071356;28;20021;-65
2021/05/15 06:12:00;;;;;;;6.30;2.90;;;;;;;19.37;47.54;100490.91;5071759;28;20025;-65
2021/05/15 06:14:26;;;;;;;5.13;3.35;;;;;;;19.40;47.88;100490.63;5070739;28;20037;-65
2021/05/15 06:16:51;;;;;;;6.78;3.65;;;;;;;19.42;47.31;100492.31;5071639;28;20104;-65
2021/05/15 06:19:17;;;;;;;6.00;3.40;;;;;;;19.42;47.54;100482.56;5071210;28;20472;-65
2021/05/15 06:21:43;;;;;;;5.05;3.40;;;;;;;19.44;47.43;100480.66;5071304;28;20044;-65
2021/05/15 06:24:09;;;;;;;7.43;3.88;;;;;;;19.44;47.21;100483.28;5071779;28;20027;-70
2021/05/15 06:26:34;;;;;;;5.72;3.40;;;;;;;19.44;47.11;100478.00;5071388;28;20024;-64
2021/05/15 06:28:59;;;;;;;6.32;3.90;;;;;;;19.46;47.11;100489.25;5071208;28;20021;-64
2021/05/15 06:31:24;;;;;;;5.60;3.60;;;;;;;19.46;47.32;100486.59;5071186;28;20170;-64
2021/05/15 06:33:50;;;;;;;5.73;3.47;;;;;;;19.48;47.18;100481.19;5071670;28;20452;-62
2021/05/15 06:36:15;;;;;;;5.35;3.50;;;;;;;19.47;47.27;100482.16;5070508;28;20270;-67
2021/05/15 06:38:42;;;;;;;5.97;3.65;;;;;;;19.51;47.45;100484.38;5071631;28;20063;-63
2021/05/15 06:41:07;;;;;;;5.75;3.53;;;;;;;19.55;47.36;100480.47;5071613;28;20043;-63
2021/05/15 06:43:33;;;;;;;5.93;3.67;;;;;;;19.60;47.54;100472.13;5064635;27;20557;-63
2021/05/15 06:45:58;;;;;;;7.05;3.70;;;;;;;19.65;47.79;100480.44;5071237;28;20024;-64
2021/05/15 06:48:24;;;;;;;6.95;3.60;;;;;;;19.68;47.45;100472.22;5071081;28;20020;-63
2021/05/15 06:50:50;;;;;;;6.05;3.53;;;;;;;19.72;47.18;100475.41;5070555;28;20055;-62
2021/05/15 06:53:15;;;;;;;6.82;4.03;;;;;;;19.77;47.46;100470.56;5071360;28;20016;-62
2021/05/15 06:55:40;;;;;;;7.80;3.77;;;;;;;19.81;47.35;100463.19;5074834;28;20024;-63
2021/05/15 06:58:06;;;;;;;6.53;4.00;;;;;;;19.83;47.13;100464.69;5074248;28;20285;-62
2021/05/15 07:00:32;;;;;;;6.53;4.18;;;;;;;19.88;47.13;100464.25;5074665;28;20319;-63
2021/05/15 07:02:57;;;;;;;7.70;3.95;;;;;;;19.91;47.15;100458.69;5074904;28;20051;-63
2021/05/15 07:05:23;;;;;;;6.70;4.18;;;;;;;19.93;47.15;100456.72;5073754;28;20020;-64
2021/05/15 07:07:49;;;;;;;6.93;4.13;;;;;;;19.92;47.32;100455.88;5075054;28;20039;-62
2021/05/15 07:10:14;;;;;;;6.03;4.20;;;;;;;19.94;47.47;100464.50;5074566;28;20029;-62
2021/05/15 07:12:40;;;;;;;6.97;3.97;;;;;;;19.95;47.48;100468.00;5074021;28;20025;-61
2021/05/15 07:15:07;;;;;;;7.18;4.05;;;;;;;19.94;47.28;100459.22;5074605;28;20028;-63
2021/05/15 07:17:34;;;;;;;6.57;4.28;;;;;;;19.90;47.47;100452.56;5073586;28;20043;-64
2021/05/15 07:20:00;;;;;;;9.00;4.07;;;;;;;19.92;47.59;100452.41;5074983;28;20027;-63
2021/05/15 07:22:25;;;;;;;8.40;4.20;;;;;;;19.93;47.46;100444.34;5074547;28;20025;-64
2021/05/15 07:24:52;;;;;;;7.38;4.10;;;;;;;19.93;47.58;100460.22;5074214;28;20107;-64
2021/05/15 07:27:22;;;;;;;6.25;4.00;;;;;;;19.93;47.99;100452.28;5074406;28;20032;-63
2021/05/15 07:29:48;;;;;;;6.18;4.03;;;;;;;19.91;47.94;100446.28;5074333;28;20036;-63
2021/05/15 07:32:14;;;;;;;6.93;4.25;;;;;;;19.90;48.27;100451.72;5073592;28;20418;-62
2021/05/15 07:34:39;;;;;;;7.65;4.22;;;;;;;19.86;48.11;100447.72;5074419;28;20380;-62
2021/05/15 07:37:05;;;;;;;7.37;3.77;;;;;;;19.86;48.15;100451.19;5074511;28;20485;-62
2021/05/15 07:39:30;;;;;;;6.53;4.10;;;;;;;19.86;48.16;100439.78;5073515;28;20337;-62
2021/05/15 07:41:55;;;;;;;7.20;4.72;;;;;;;19.82;48.48;100433.97;5074561;28;20074;-64
2021/05/15 07:44:23;;;;;;;7.95;4.20;;;;;;;19.79;48.40;100431.59;5074306;28;20047;-64
2021/05/15 07:46:49;;;;;;;8.25;4.57;;;;;;;19.83;48.52;100437.41;5073991;28;20028;-64
2021/05/15 07:49:14;;;;;;;6.97;4.20;;;;;;;19.85;48.50;100435.44;5076199;28;20024;-64
2021/05/15 07:51:40;;;;;;;6.75;4.40;;;;;;;19.86;48.17;100432.66;5076838;28;20017;-61
2021/05/15 07:54:05;;;;;;;6.00;4.32;;;;;;;19.86;48.15;100437.94;5074628;28;20024;-64
2021/05/15 07:56:31;;;;;;;7.10;4.45;;;;;;;19.85;48.44;100428.38;5075527;28;20052;-63
2021/05/15 07:58:59;;;;;;;6.18;4.40;;;;;;;19.88;48.50;100428.06;5076338;28;20127;-67
2021/05/15 08:01:24;;;;;;;8.82;4.15;;;;;;;19.89;48.62;100428.91;5077664;28;20032;-66
2021/05/15 08:03:49;;;;;;;7.78;4.80;;;;;;;19.89;48.20;100432.38;5080983;28;20025;-65
2021/05/15 08:06:15;;;;;;;6.88;3.97;;;;;;;19.91;48.49;100424.31;5081899;28;20127;-65
2021/05/15 08:08:40;;;;;;;6.25;3.85;;;;;;;19.93;48.20;100419.69;5082595;28;20484;-65
2021/05/15 08:11:05;;;;;;;7.55;4.38;;;;;;;19.93;48.12;100423.19;5082504;28;20085;-65
2021/05/15 08:13:31;;;;;;;6.28;3.83;;;;;;;19.92;48.17;100407.47;5083672;28;20028;-65
2021/05/15 08:15:57;;;;;;;6.63;4.15;;;;;;;19.98;47.95;100411.31;5082204;28;20148;-64
2021/05/15 08:18:22;;;;;;;7.95;3.95;;;;;;;19.98;47.92;100411.31;5082979;28;20103;-64
2021/05/15 08:20:48;;;;;;;6.55;3.97;;;;;;;20.02;48.10;100423.28;5084355;28;20047;-61
2021/05/15 08:23:13;;;;;;;5.25;3.50;;;;;;;19.99;47.98;100423.56;5081359;28;20050;-63
2021/05/15 08:25:39;;;;;;;7.25;3.90;;;;;;;19.94;48.35;100421.34;5074747;28;20039;-62
2021/05/15 08:28:10;;;;;;;6.63;3.75;;;;;;;19.91;47.90;100419.00;5073775;28;20086;-62
2021/05/15 08:30:36;;;;;;;6.30;3.85;;;;;;;19.94;47.99;100414.25;5074448;28;20464;-66
2021/05/15 08:33:01;;;;;;;6.93;3.92;;;;;;;19.91;48.08;100419.00;5074586;28;20021;-64
2021/05/15 08:35:27;;;;;;;5.80;3.95;;;;;;;19.92;48.20;100413.56;5073185;28;20443;-64
2021/05/15 08:37:53;;;;;;;6.78;4.10;;;;;;;19.92;48.39;100412.75;5073908;28;20031;-63
2021/05/15 08:40:20;;;;;;;5.28;3.72;;;;;;;19.90;48.13;100412.91;5073235;28;20032;-63
2021/05/15 08:42:47;;;;;;;7.03;3.90;;;;;;;19.89;47.93;100413.03;5072508;28;20029;-63
2021/05/15 08:45:15;;;;;;;5.68;3.67;;;;;;;19.88;48.18;100409.53;5073269;28;20027;-63
2021/05/15 08:47:42;;;;;;;7.45;3.90;;;;;;;19.90;48.20;100401.47;5073960;28;20028;-63
2021/05/15 08:50:16;;;;;;;5.30;3.75;;;;;;;19.88;48.01;100398.97;5073028;28;20031;-65
2021/05/15 08:52:44;;;;;;;6.00;3.90;;;;;;;19.89;47.82;100399.81;5073276;28;20020;-62
2021/05/15 08:55:16;;;;;;;7.30;3.78;;;;;;;19.87;47.99;100384.09;5072859;28;20059;-63
2021/05/15 08:57:42;;;;;;;5.93;3.55;;;;;;;19.90;48.18;100388.25;5074318;28;20055;-65
2021/05/15 09:00:11;;;;;;;6.18;3.80;;;;;;;19.89;47.94;100384.78;5073835;28;20025;-63
2021/05/15 09:02:39;;;;;;;7.07;4.30;;;;;;;19.91;48.04;100374.06;5073312;28;20050;-65
2021/05/15 09:05:07;;;;;;;6.13;3.90;;;;;;;19.97;47.80;100383.22;5073455;28;20134;-63
2021/05/15 09:07:33;;;;;;;6.13;3.90;;;;;;;19.98;47.94;100384.88;5071811;28;20059;-64
2021/05/15 09:09:58;;;;;;;6.90;4.15;;;;;;;19.96;47.96;100373.59;5073452;28;20016;-66
2021/05/15 09:12:24;;;;;;;6.88;4.00;;;;;;;19.97;47.78;100373.47;5072963;28;20078;-66
2021/05/15 09:15:00;;;;;;;6.03;3.90;;;;;;;19.99;47.82;100368.84;5073418;28;20052;-64
2021/05/15 09:17:26;;;;;;;6.72;4.13;;;;;;;20.00;47.89;100367.06;5071742;28;20029;-65
2021/05/15 09:19:53;;;;;;;7.45;3.95;;;;;;;19.93;47.71;100350.94;5072753;28;20028;-64
2021/05/15 09:22:26;;;;;;;6.00;3.88;;;;;;;19.97;47.55;100356.78;5072563;28;20028;-65
2021/05/15 09:25:01;;;;;;;6.85;3.85;;;;;;;19.90;47.59;100341.50;5072466;28;20047;-65
2021/05/15 09:27:34;;;;;;;6.07;3.75;;;;;;;19.90;47.87;100332.72;5073492;28;20107;-64
2021/05/15 09:30:01;;;;;;;6.45;3.47;;;;;;;19.94;47.56;100331.44;5073079;28;20024;-65
2021/05/15 09:32:32;;;;;;;6.50;3.88;;;;;;;19.96;47.61;100339.22;5071490;28;20028;-65
2021/05/15 09:34:58;;;;;;;6.30;3.67;;;;;;;19.94;47.73;100321.69;5072994;28;20029;-65
2021/05/15 09:37:33;;;;;;;5.80;3.40;;;;;;;19.97;47.45;100330.31;5072467;28;20021;-66
2021/05/15 09:40:10;;;;;;;6.82;3.88;;;;;;;19.96;47.71;100326.00;5071947;28;20025;-65
2021/05/15 09:42:53;;;;;;;5.65;3.53;;;;;;;19.97;47.76;100323.22;5072549;28;20090;-65
2021/05/15 09:45:25;;;;;;;5.30;3.47;;;;;;;19.98;47.48;100318.75;5071302;28;20104;-64
2021/05/15 09:47:52;;;;;;;4.80;3.15;;;;;;;19.98;47.41;100316.94;5072509;28;20082;-65
2021/05/15 09:50:18;;;;;;;6.45;3.28;;;;;;;19.96;47.77;100313.59;5072188;28;20025;-63
2021/05/15 09:52:44;;;;;;;6.03;3.20;;;;;;;19.96;47.65;100310.13;5071798;28;20052;-66
2021/05/15 09:55:09;;;;;;;6.00;3.40;;;;;;;19.96;47.85;100307.50;5072494;28;20130;-66
2021/05/15 09:57:58;;;;;;;5.80;3.08;;;;;;;19.92;47.58;100305.16;5071645;28;20487;-69
2021/05/15 10:00:23;;;;;;;5.57;3.40;;;;;;;19.90;47.39;100304.47;5071622;28;20415;-67
2021/05/15 10:02:53;;;;;;;5.60;3.30;;;;;;;19.84;47.70;100313.00;5072204;28;20024;-65
2021/05/15 10:05:19;;;;;;;4.93;3.08;;;;;;;19.86;47.61;100316.31;5072014;28;20020;-62
2021/05/15 10:07:44;;;;;;;6.28;3.40;;;;;;;19.83;47.74;100315.78;5071332;28;20069;-61
2021/05/15 10:10:10;;;;;;;4.80;2.95;;;;;;;19.84;47.92;100309.53;5071829;28;20065;-62
2021/05/15 10:12:36;;;;;;;4.47;2.58;;;;;;;19.84;48.06;100298.94;5071546;28;20025;-63
2021/05/15 10:15:04;;;;;;;5.97;3.25;;;;;;;19.86;47.89;100308.38;5071437;28;20029;-64
2021/05/15 10:17:30;;;;;;;4.93;2.90;;;;;;;19.82;48.29;100295.59;5072012;28;20025;-64
2021/05/15 10:19:56;;;;;;;5.35;2.90;;;;;;;19.88;48.14;100303.78;5071975;28;20032;-64
2021/05/15 10:22:22;;;;;;;5.70;3.25;;;;;;;19.87;48.06;100296.00;5070834;28;20027;-69
2021/05/15 10:24:50;;;;;;;6.00;3.17;;;;;;;19.90;48.14;100277.19;5072578;28;20115;-64
2021/05/15 10:27:17;;;;;;;4.20;2.78;;;;;;;19.95;48.11;100288.16;5071403;28;20029;-65
2021/05/15 10:29:50;;;;;;;4.93;2.80;;;;;;;19.93;48.13;100280.38;5073723;28;20471;-64
2021/05/15 10:32:20;;;;;;;6.07;3.30;;;;;;;19.93;48.41;100276.88;5075464;28;20032;-61
2021/05/15 10:34:48;;;;;;;4.72;2.83;;;;;;;19.90;48.50;100267.44;5075053;28;20040;-64
2021/05/15 10:37:20;;;;;;;5.05;2.67;;;;;;;19.92;48.63;100268.13;5075421;28;20038;-64
2021/05/15 10:39:48;;;;;;;4.65;2.72;;;;;;;19.92;48.41;100262.00;5075882;28;20094;-63
2021/05/15 10:42:13;;;;;;;4.32;2.75;;;;;;;19.92;48.81;100260.19;5074771;28;20348;-64
2021/05/15 10:44:45;;;;;;;4.88;2.60;;;;;;;19.93;48.74;100258.38;5075724;28;20021;-63
2021/05/15 10:47:11;;;;;;;4.68;2.55;;;;;;;19.93;48.84;100246.00;5075630;28;20104;-63
2021/05/15 10:49:36;;;;;;;5.13;2.72;;;;;;;19.91;48.77;100240.00;5074534;28;20123;-65
2021/05/15 10:52:10;;;;;;;4.53;2.25;;;;;;;19.96;48.51;100250.13;5075942;28;20020;-63
2021/05/15 10:55:00;;;;;;;4.53;2.10;;;;;;;19.96;48.65;100244.03;5075201;28;20028;-61
2021/05/15 10:57:31;;;;;;;4.88;2.47;;;;;;;20.00;48.82;100248.03;5074176;28;20559;-63
2021/05/15 11:00:00;;;;;;;4.22;2.13;;;;;;;20.00;48.92;100248.84;5075359;28;20024;-64
2021/05/15 11:02:31;;;;;;;5.40;2.30;;;;;;;20.01;48.82;100239.94;5039940;27;20036;-62
2021/05/15 11:05:00;;;;;;;5.07;2.60;;;;;;;20.03;48.76;100240.63;5075283;28;20329;-63
2021/05/15 11:07:34;;;;;;;4.75;2.92;;;;;;;20.01;48.76;100226.72;5075582;28;20028;-66
2021/05/15 11:10:01;;;;;;;;;;;;;;;20.05;48.92;100238.66;5074792;28;20469;-62
2021/05/15 11:12:37;;;;;;;3.80;2.20;;;;;;;20.07;48.83;100235.84;5074637;28;20356;-63
2021/05/15 11:15:14;;;;;;;3.53;1.95;;;;;;;20.08;48.64;100238.34;5075022;28;20028;-63
2021/05/15 11:17:40;;;;;;;3.47;1.60;;;;;;;20.06;48.67;100224.44;5076036;28;20043;-64
2021/05/15 11:20:19;;;;;;;4.50;1.90;;;;;;;20.06;48.72;100223.59;5076581;28;20016;-63
2021/05/15 11:22:52;;;;;;;3.88;1.98;;;;;;;20.03;48.82;100213.34;5074896;28;20102;-66
2021/05/15 11:25:20;;;;;;;4.88;2.25;;;;;;;20.08;48.46;100219.00;5073642;28;20398;-64